Time;durP1;ratioP1;P1;durP2;ratioP2;P2;SDS_P1;SDS_P2;PMS_P1;PMS_P2;Temp;Humidity;BMP_temperature;BMP_pressure;BME280_temperature;BME280_humidity;BME280_pressure;Samples;Min_cycle;Max_cycle;Signal;HPM_P1;HPM_P2
2022/07/07 00:02:10;;;;;;;5.23;1.70;;;;;;;20.20;37.14;98446.44;8416016;28;20231;-81
2022/07/07 00:06:13;;;;;;;4.60;1.43;;;;;;;20.09;37.48;98446.41;8418510;28;20230;-80
2022/07/07 00:10:17;;;;;;;3.40;1.90;;;;;;;20.03;37.82;98442.44;8418187;28;20233;-81
2022/07/07 00:14:20;;;;;;;2.43;1.60;;;;;;;20.15;37.45;98442.47;8418274;28;20431;-81
2022/07/07 00:18:23;;;;;;;7.97;1.80;;;;;;;20.15;37.45;98445.09;8417599;28;20418;-80
2022/07/07 00:22:26;;;;;;;4.73;1.70;;;;;;;20.04;37.83;98440.66;8417865;28;20522;-79
2022/07/07 00:26:31;;;;;;;3.50;1.60;;;;;;;20.05;38.03;98437.09;8417741;28;20226;-80
2022/07/07 00:30:34;;;;;;;5.33;1.63;;;;;;;20.02;38.11;98432.03;8417858;28;20237;-79
2022/07/07 00:34:36;;;;;;;4.20;1.80;;;;;;;20.08;37.94;98437.66;8417623;28;20408;-80
2022/07/07 00:38:40;;;;;;;6.33;1.67;;;;;;;20.17;37.83;98437.94;8417510;28;20396;-80
2022/07/07 00:42:44;;;;;;;4.07;2.20;;;;;;;20.13;38.17;98444.38;8417292;28;20236;-79
2022/07/07 00:46:49;;;;;;;4.97;1.90;;;;;;;20.01;38.60;98428.59;8417175;28;20224;-80
2022/07/07 00:50:52;;;;;;;6.43;2.17;;;;;;;20.10;38.47;98432.28;8417071;28;20427;-79
2022/07/07 00:54:56;;;;;;;3.57;1.93;;;;;;;20.03;38.59;98429.31;8416785;28;20556;-80
2022/07/07 00:59:06;;;;;;;7.57;2.20;;;;;;;20.07;39.32;98427.28;8416935;28;20233;-80
2022/07/07 01:03:09;;;;;;;5.77;1.80;;;;;;;20.06;40.28;98415.91;8416554;28;20227;-80
2022/07/07 01:07:12;;;;;;;6.87;2.23;;;;;;;20.00;40.93;98413.75;8416356;28;20232;-79
2022/07/07 01:11:14;;;;;;;7.93;2.50;;;;;;;19.97;41.35;98415.78;8416420;28;20526;-80
2022/07/07 01:15:19;;;;;;;4.03;2.40;;;;;;;20.05;41.71;98416.88;8416146;28;20230;-80
2022/07/07 01:19:23;;;;;;;6.00;2.00;;;;;;;20.04;40.88;98401.22;8416283;28;20228;-80
2022/07/07 01:23:27;;;;;;;9.03;2.10;;;;;;;19.91;41.07;98396.03;8415442;28;20226;-80
2022/07/07 01:27:30;;;;;;;6.70;2.50;;;;;;;19.94;40.69;98397.63;8415750;28;20244;-80
2022/07/07 01:31:33;;;;;;;6.77;2.20;;;;;;;20.01;40.34;98386.53;8415675;28;20233;-80
2022/07/07 01:35:36;;;;;;;7.70;2.20;;;;;;;20.05;40.04;98384.50;8415800;28;20233;-80
2022/07/07 01:39:41;;;;;;;4.17;2.20;;;;;;;20.04;39.58;98375.75;8415259;28;20233;-80
2022/07/07 01:43:44;;;;;;;3.67;2.00;;;;;;;20.08;39.14;98366.66;8415350;28;20227;-80
2022/07/07 01:47:47;;;;;;;4.50;1.83;;;;;;;20.01;39.52;98378.63;8415345;28;20425;-80
2022/07/07 01:51:49;;;;;;;5.00;2.10;;;;;;;19.97;39.07;98379.84;8415036;28;20228;-80
2022/07/07 01:55:54;;;;;;;5.53;2.20;;;;;;;19.99;39.57;98371.81;8414890;28;20227;-80
2022/07/07 01:59:56;;;;;;;2.87;1.70;;;;;;;19.92;39.36;98377.53;8414762;28;20223;-80
2022/07/07 02:03:59;;;;;;;2.90;1.80;;;;;;;19.98;39.60;98368.34;8414781;28;20430;-80
2022/07/07 02:08:02;;;;;;;3.23;1.97;;;;;;;19.93;39.92;98373.09;8414416;28;20244;-80
2022/07/07 02:12:07;;;;;;;5.27;2.10;;;;;;;19.87;39.81;98376.22;8414560;28;20226;-80
2022/07/07 02:16:11;;;;;;;6.60;2.17;;;;;;;19.92;39.71;98374.91;8414315;28;20230;-80
2022/07/07 02:20:13;;;;;;;7.77;2.23;;;;;;;19.92;39.84;98382.78;8413934;28;20227;-79
2022/07/07 02:24:16;;;;;;;3.60;1.83;;;;;;;19.91;39.73;98375.03;8413649;28;20231;-80
2022/07/07 02:28:22;;;;;;;8.07;2.20;;;;;;;19.95;39.71;98379.09;8413797;28;20248;-80
2022/07/07 02:32:25;;;;;;;3.53;2.03;;;;;;;19.92;39.83;98380.16;8413479;28;20229;-81
2022/07/07 02:36:28;;;;;;;4.43;2.23;;;;;;;19.96;39.56;98382.56;8413933;28;20316;-80
2022/07/07 02:40:31;;;;;;;5.70;2.37;;;;;;;19.88;40.36;98370.00;8413922;28;20436;-80
2022/07/07 02:44:35;;;;;;;6.37;2.10;;;;;;;19.96;40.19;98369.44;8413557;28;20428;-80
2022/07/07 02:48:38;;;;;;;3.70;1.93;;;;;;;19.95;40.08;98365.13;8413759;28;20254;-80
2022/07/07 02:52:41;;;;;;;3.47;1.80;;;;;;;19.98;40.02;98365.72;8413499;28;20234;-80
2022/07/07 02:56:44;;;;;;;5.07;1.90;;;;;;;19.97;40.05;98371.09;8413640;28;20226;-80
2022/07/07 03:00:48;;;;;;;5.40;2.03;;;;;;;19.89;40.30;98375.13;8413300;28;20231;-80
2022/07/07 03:04:51;;;;;;;6.20;1.97;;;;;;;19.91;40.26;98373.25;8413409;28;20234;-80
2022/07/07 03:08:54;;;;;;;7.23;2.20;;;;;;;19.88;40.42;98370.84;8413194;28;20548;-80
2022/07/07 03:12:57;;;;;;;4.53;1.93;;;;;;;19.89;40.98;98369.03;8413410;28;20308;-80
2022/07/07 03:17:01;;;;;;;7.07;2.23;;;;;;;19.81;40.68;98361.75;8413322;28;20416;-80
2022/07/07 03:21:04;;;;;;;7.63;2.00;;;;;;;19.86;41.48;98358.78;8413249;28;20531;-80
2022/07/07 03:25:08;;;;;;;4.53;2.10;;;;;;;19.82;42.21;98359.94;8413124;28;20255;-80
2022/07/07 03:29:11;;;;;;;3.23;1.80;;;;;;;19.70;42.79;98357.28;8413030;28;20274;-80
2022/07/07 03:33:15;;;;;;;4.23;1.90;;;;;;;19.85;42.24;98354.47;8412938;28;20242;-80
2022/07/07 03:37:18;;;;;;;5.00;2.03;;;;;;;19.81;41.51;98353.03;8417976;28;20226;-79
2022/07/07 03:41:21;;;;;;;5.57;2.33;;;;;;;19.81;41.53;98351.25;8419281;28;20284;-80
2022/07/07 03:45:24;;;;;;;5.70;1.80;;;;;;;19.82;40.96;98344.19;8418293;28;20522;-79
2022/07/07 03:49:28;;;;;;;5.07;2.03;;;;;;;19.80;41.30;98339.06;8418983;28;20448;-80
2022/07/07 03:53:32;;;;;;;2.70;1.77;;;;;;;19.87;40.77;98340.25;8418657;28;20242;-80
2022/07/07 03:57:34;;;;;;;5.83;1.87;;;;;;;19.82;41.08;98337.16;8418427;28;20487;-80
2022/07/07 04:01:37;;;;;;;4.27;1.90;;;;;;;19.83;41.44;98340.63;8418757;28;20290;-79
2022/07/07 04:05:42;;;;;;;3.70;2.00;;;;;;;19.84;40.97;98331.78;8418379;28;20232;-80
2022/07/07 04:09:45;;;;;;;2.53;1.90;;;;;;;19.87;41.34;98331.53;8418229;28;20286;-80
2022/07/07 04:13:48;;;;;;;7.53;1.87;;;;;;;19.92;41.18;98326.78;8398475;28;20236;-80
2022/07/07 04:17:52;;;;;;;6.07;1.80;;;;;;;19.92;41.21;98339.91;8398999;28;20249;-79
2022/07/07 04:21:56;;;;;;;4.73;2.20;;;;;;;19.91;40.93;98333.81;8400787;28;20225;-79
2022/07/07 04:25:59;;;;;;;6.10;2.10;;;;;;;20.01;40.88;98339.22;8417786;28;20243;-80
2022/07/07 04:30:02;;;;;;;4.43;1.97;;;;;;;19.96;40.87;98337.88;8417745;28;20316;-79
2022/07/07 04:34:05;;;;;;;5.93;1.93;;;;;;;20.01;40.85;98330.47;8417644;28;20515;-82
2022/07/07 04:38:09;;;;;;;5.80;1.83;;;;;;;20.08;40.57;98331.66;8417699;28;20317;-78
2022/07/07 04:42:12;;;;;;;10.20;2.20;;;;;;;20.05;40.81;98327.50;8417562;28;20242;-79
2022/07/07 04:46:15;;;;;;;2.80;1.67;;;;;;;20.11;40.15;98328.81;8416683;28;20242;-78
2022/07/07 04:50:18;;;;;;;4.57;1.60;;;;;;;20.16;40.56;98321.38;8417292;28;20495;-78
2022/07/07 04:54:23;;;;;;;5.50;1.90;;;;;;;20.18;40.41;98319.50;8417002;28;20231;-78
2022/07/07 04:58:25;;;;;;;4.07;1.70;;;;;;;20.20;40.12;98311.47;8416336;28;20223;-78
2022/07/07 05:02:28;;;;;;;5.93;1.80;;;;;;;20.34;39.56;98294.63;8416654;28;20226;-77
2022/07/07 05:06:31;;;;;;;4.63;1.90;;;;;;;20.25;40.23;98296.16;8416458;28;20235;-78
2022/07/07 05:10:35;;;;;;;4.03;1.77;;;;;;;20.28;40.30;98307.28;8416338;28;20246;-77
2022/07/07 05:14:38;;;;;;;3.50;1.90;;;;;;;20.33;40.50;98304.28;8416509;28;20533;-78
2022/07/07 05:18:41;;;;;;;6.17;1.60;;;;;;;20.27;40.22;98308.22;8416224;28;20232;-78
2022/07/07 05:22:44;;;;;;;3.03;1.70;;;;;;;20.27;40.46;98304.78;8416171;28;20526;-86
2022/07/07 05:26:48;;;;;;;3.30;1.40;;;;;;;20.39;40.22;98302.97;8415865;28;20230;-77
2022/07/07 05:30:52;;;;;;;4.67;1.47;;;;;;;20.38;40.36;98309.19;8415615;28;20235;-77
2022/07/07 05:34:54;;;;;;;2.33;1.57;;;;;;;20.43;39.99;98301.78;8415359;28;20234;-76
2022/07/07 05:38:57;;;;;;;7.33;1.87;;;;;;;20.50;40.04;98301.19;8415430;28;20234;-77
2022/07/07 05:43:01;;;;;;;5.37;1.80;;;;;;;20.56;40.13;98299.84;8415162;28;20234;-77
2022/07/07 05:47:05;;;;;;;3.37;1.70;;;;;;;20.61;39.48;98308.22;8414753;28;20239;-77
2022/07/07 05:51:07;;;;;;;3.37;1.70;;;;;;;20.36;39.62;98305.84;8414936;28;20236;-77
2022/07/07 05:55:10;;;;;;;3.63;1.70;;;;;;;20.55;39.69;98313.13;8415054;28;20231;-77
2022/07/07 05:59:14;;;;;;;5.93;1.77;;;;;;;20.60;39.37;98300.44;8414124;28;20241;-77
2022/07/07 06:03:17;;;;;;;4.87;1.83;;;;;;;20.54;39.66;98293.84;8414795;28;20441;-77
2022/07/07 06:07:20;;;;;;;3.80;1.67;;;;;;;20.60;39.35;98300.44;8414433;28;20227;-77
2022/07/07 06:11:23;;;;;;;4.90;1.73;;;;;;;20.62;39.79;98306.41;8414168;28;20219;-77
2022/07/07 06:15:32;;;;;;;5.73;1.60;;;;;;;20.60;39.62;98293.41;8413909;28;20249;-77
2022/07/07 06:19:35;;;;;;;5.00;1.60;;;;;;;20.56;39.16;98294.59;8414261;28;20238;-77
2022/07/07 06:23:38;;;;;;;4.50;1.80;;;;;;;20.64;39.37;98299.25;8414083;28;20234;-77
2022/07/07 06:27:41;;;;;;;5.80;1.67;;;;;;;20.65;39.08;98293.03;8414034;28;20230;-77
2022/07/07 06:31:45;;;;;;;4.43;1.80;;;;;;;20.67;39.47;98294.56;8414086;28;20232;-77
2022/07/07 06:35:48;;;;;;;8.70;1.90;;;;;;;20.71;38.82;98300.41;8413847;28;20226;-77
2022/07/07 06:39:51;;;;;;;3.93;1.50;;;;;;;20.81;38.93;98287.34;8413945;28;20556;-77
2022/07/07 06:43:54;;;;;;;4.50;1.60;;;;;;;20.92;38.81;98297.84;8413627;28;20345;-77
2022/07/07 06:47:58;;;;;;;2.97;1.60;;;;;;;20.87;38.69;98294.78;8413657;28;20238;-77
2022/07/07 06:52:00;;;;;;;4.57;1.83;;;;;;;20.81;39.09;98295.25;8413544;28;20223;-77
2022/07/07 06:56:04;;;;;;;4.80;1.87;;;;;;;20.75;39.48;98291.31;8413635;28;20227;-77
2022/07/07 07:00:10;;;;;;;6.43;2.03;;;;;;;20.77;39.80;98297.31;8413508;28;20237;-78
2022/07/07 07:04:15;;;;;;;7.57;1.73;;;;;;;20.70;43.77;98301.41;8413285;28;20243;-77
2022/07/07 07:08:18;;;;;;;4.17;1.83;;;;;;;20.66;44.56;98303.44;8413694;28;20230;-77
2022/07/07 07:12:21;;;;;;;6.70;2.23;;;;;;;20.61;46.90;98300.31;8420303;28;20227;-77
2022/07/07 07:16:24;;;;;;;4.23;1.80;;;;;;;20.70;45.20;98299.59;8419573;28;20228;-77
2022/07/07 07:20:29;;;;;;;7.10;1.83;;;;;;;20.73;44.62;98301.13;8419934;28;20295;-76
2022/07/07 07:24:32;;;;;;;5.20;1.93;;;;;;;20.53;46.23;98307.16;8420041;28;20250;-74
2022/07/07 07:28:35;;;;;;;5.77;1.90;;;;;;;21.31;48.27;98318.41;8400484;28;20230;-79
2022/07/07 07:32:38;;;;;;;6.50;2.07;;;;;;;21.65;47.17;98301.47;8386509;28;20286;-78
2022/07/07 07:36:42;;;;;;;6.23;1.87;;;;;;;21.81;46.39;98306.25;8386681;28;20231;-78
2022/07/07 07:40:45;;;;;;;6.30;1.80;;;;;;;21.92;45.44;98304.53;8386449;28;20223;-78
2022/07/07 07:49:08;;;;;;;4.47;1.80;;;;;;;22.07;44.98;98316.38;8418962;28;20234;-79
2022/07/07 07:53:12;;;;;;;5.40;1.70;;;;;;;22.05;45.13;98308.59;8419012;28;20226;-78
2022/07/07 07:57:15;;;;;;;8.43;2.50;;;;;;;22.00;45.36;98307.31;8418798;28;20237;-79
2022/07/07 08:01:18;;;;;;;8.53;1.80;;;;;;;21.99;45.43;98313.56;8418647;28;20226;-78
2022/07/07 08:05:21;;;;;;;15.17;2.20;;;;;;;22.00;45.81;98318.69;8418413;28;20237;-78
2022/07/07 08:09:26;;;;;;;6.33;1.87;;;;;;;22.00;45.60;98313.44;8417927;28;20226;-78
2022/07/07 08:13:29;;;;;;;4.63;2.10;;;;;;;22.04;44.96;98301.66;8418109;28;20243;-78
2022/07/07 08:17:33;;;;;;;7.53;1.97;;;;;;;21.58;45.01;98295.03;8418186;28;20238;-78
2022/07/07 08:21:36;;;;;;;9.53;2.07;;;;;;;21.41;45.29;98301.69;8417000;28;20248;-78
2022/07/07 08:25:40;;;;;;;6.17;2.07;;;;;;;21.08;46.92;98303.53;8417881;28;20567;-78
2022/07/07 08:29:43;;;;;;;7.50;2.17;;;;;;;21.32;46.83;98296.34;8417937;28;20321;-78
2022/07/07 08:33:46;;;;;;;6.03;2.10;;;;;;;21.64;46.36;98288.41;8417816;28;20528;-78
2022/07/07 08:37:48;;;;;;;3.80;2.20;;;;;;;21.30;46.17;98291.22;8393210;28;20232;-78
2022/07/07 08:41:53;;;;;;;8.57;2.40;;;;;;;21.54;45.41;98291.00;8384485;28;20235;-78
2022/07/07 08:45:56;;;;;;;4.17;1.67;;;;;;;21.78;45.94;98282.81;8405201;28;20434;-78
2022/07/07 08:50:00;;;;;;;6.90;2.00;;;;;;;21.87;45.10;98278.53;8417068;28;20226;-77
2022/07/07 08:54:03;;;;;;;5.77;2.30;;;;;;;21.53;45.76;98288.47;8416840;28;20231;-77
2022/07/07 08:58:07;;;;;;;6.33;2.10;;;;;;;21.83;45.58;98283.22;8416684;28;20429;-79
2022/07/07 09:02:10;;;;;;;12.10;2.60;;;;;;;21.95;45.43;98283.16;8416787;28;20541;-78
2022/07/07 09:06:13;;;;;;;7.70;2.33;;;;;;;21.69;45.73;98282.78;8416637;28;20236;-79
2022/07/07 09:10:29;;;;;;;7.10;1.90;;;;;;;21.87;45.55;98283.81;8416138;28;20506;-78
2022/07/07 09:14:37;;;;;;;9.60;1.90;;;;;;;21.94;45.24;98289.41;8416858;28;20230;-80
2022/07/07 09:18:42;;;;;;;11.43;2.60;;;;;;;21.89;45.69;98286.31;8416316;28;20226;-80
2022/07/07 09:22:50;;;;;;;6.90;2.17;;;;;;;21.83;45.95;98291.16;8416114;28;20230;-79
2022/07/07 09:26:57;;;;;;;6.40;2.00;;;;;;;22.01;45.75;98296.66;8416269;28;20585;-79
2022/07/07 09:31:01;;;;;;;5.83;2.37;;;;;;;22.10;45.75;98288.91;8416138;28;20230;-79
2022/07/07 09:38:13;;;;;;;4.13;1.73;;;;;;;22.39;45.03;98284.59;8415986;28;20249;-80
2022/07/07 09:39:42;;;;;;;12.17;2.43;;;;;;;22.66;44.43;98288.41;8415570;28;20563;-80
2022/07/07 09:44:04;;;;;;;6.03;2.20;;;;;;;22.89;44.17;98288.16;8415525;28;20225;-81
2022/07/07 09:48:09;;;;;;;4.07;1.90;;;;;;;22.83;44.22;98281.63;8415354;28;20238;-80
2022/07/07 09:52:15;;;;;;;6.23;2.10;;;;;;;22.96;43.89;98284.81;8415084;28;20240;-81
2022/07/07 09:56:19;;;;;;;4.93;2.10;;;;;;;23.06;43.80;98268.19;8415174;28;20229;-80
2022/07/07 10:00:22;;;;;;;5.80;2.10;;;;;;;23.20;43.55;98280.94;8414434;28;20320;-79
2022/07/07 10:04:27;;;;;;;9.43;2.40;;;;;;;23.07;43.70;98280.41;8414864;28;20417;-80
2022/07/07 10:08:30;;;;;;;8.40;2.50;;;;;;;23.14;43.59;98278.88;8414871;28;20255;-80
2022/07/07 10:12:33;;;;;;;11.47;2.70;;;;;;;22.95;44.23;98284.94;8414958;28;20285;-80
2022/07/07 10:16:36;;;;;;;8.83;2.30;;;;;;;22.78;44.28;98278.56;8414305;28;20237;-80
2022/07/07 10:20:40;;;;;;;9.10;2.60;;;;;;;22.87;44.58;98283.00;8414877;28;20242;-80
2022/07/07 10:24:44;;;;;;;9.93;2.40;;;;;;;22.94;44.30;98284.13;8414393;28;20575;-80
2022/07/07 10:28:55;;;;;;;11.97;2.80;;;;;;;23.03;44.10;98287.75;8414036;28;20226;-81
2022/07/07 10:32:58;;;;;;;9.97;2.67;;;;;;;23.08;44.12;98282.06;8399412;28;20227;-81
2022/07/07 10:37:06;;;;;;;11.47;2.73;;;;;;;23.32;43.69;98276.34;8380823;28;20234;-81
2022/07/07 10:41:09;;;;;;;12.00;2.50;;;;;;;23.21;44.12;98286.09;8380863;28;20241;-80
2022/07/07 10:45:12;;;;;;;8.50;2.60;;;;;;;23.29;44.24;98287.22;8394896;28;20234;-79
2022/07/07 10:49:15;;;;;;;6.07;2.53;;;;;;;23.06;44.55;98284.84;8413426;28;20233;-79
2022/07/07 10:53:31;;;;;;;8.00;2.43;;;;;;;23.32;44.05;98279.84;8413310;28;20237;-77
2022/07/07 10:57:40;;;;;;;9.80;2.00;;;;;;;23.57;43.36;98285.47;8413114;28;20246;-79
2022/07/07 11:02:09;;;;;;;14.60;2.90;;;;;;;23.75;43.23;98282.94;8413703;28;20229;-79
2022/07/07 11:06:11;;;;;;;5.60;2.20;;;;;;;23.64;43.42;98276.00;8413212;28;20229;-76
2022/07/07 11:10:16;;;;;;;8.37;2.27;;;;;;;23.30;43.75;98279.13;8412792;28;20231;-76
2022/07/07 11:14:19;;;;;;;5.90;1.93;;;;;;;;;;8413042;28;20421;-76
2022/07/07 11:18:24;;;;;;;5.77;2.00;;;;;;;22.53;45.57;98272.00;8412315;28;20245;-76
2022/07/07 11:22:27;;;;;;;4.83;1.90;;;;;;;22.30;46.51;98264.31;8412615;28;20341;-76
2022/07/07 11:26:31;;;;;;;3.10;1.63;;;;;;;22.42;46.02;98276.41;8412909;28;20242;-75
2022/07/07 11:30:34;;;;;;;7.07;1.50;;;;;;;22.45;45.93;98280.59;8413164;28;20234;-76
2022/07/07 11:34:44;;;;;;;3.07;1.90;;;;;;;22.33;45.92;98276.38;8413077;28;20414;-76
2022/07/07 11:38:49;;;;;;;4.30;1.93;;;;;;;22.30;45.98;98277.50;8394825;28;20231;-76
2022/07/07 11:42:53;;;;;;;5.73;1.83;;;;;;;22.58;46.19;98273.25;8379606;28;20231;-76
2022/07/07 11:46:57;;;;;;;5.80;1.90;;;;;;;22.56;46.60;98277.84;8408642;28;20231;-76
2022/07/07 11:50:59;;;;;;;5.13;2.30;;;;;;;22.56;46.89;98282.25;8412524;28;20504;-76
2022/07/07 11:55:04;;;;;;;5.17;1.90;;;;;;;22.50;48.25;98281.00;8412795;28;20227;-76
2022/07/07 11:59:08;;;;;;;4.20;2.13;;;;;;;22.13;49.49;98291.28;8418649;28;20257;-76
2022/07/07 12:03:14;;;;;;;7.03;2.43;;;;;;;21.98;50.34;98291.63;8418804;28;20230;-77
2022/07/07 12:07:17;;;;;;;4.70;2.20;;;;;;;21.98;49.12;98296.09;8418285;28;20291;-77
2022/07/07 12:11:21;;;;;;;4.53;2.10;;;;;;;22.23;49.53;98294.78;8418404;28;20227;-77
2022/07/07 12:15:27;;;;;;;5.77;2.47;;;;;;;22.16;50.48;98305.06;8417698;28;20234;-76
2022/07/07 12:19:30;;;;;;;3.73;2.43;;;;;;;22.25;51.29;98312.16;8418238;28;20425;-76
2022/07/07 12:23:37;;;;;;;5.97;2.90;;;;;;;22.05;52.65;98318.31;8417929;28;20337;-76
2022/07/07 12:27:53;;;;;;;5.57;2.90;;;;;;;21.83;54.30;98320.13;8417820;28;20239;-76
2022/07/07 12:31:57;;;;;;;5.97;2.90;;;;;;;21.75;55.18;98325.25;8417777;28;20229;-76
2022/07/07 12:36:07;;;;;;;5.97;3.17;;;;;;;21.64;57.06;98326.13;8417102;28;20222;-76
2022/07/07 12:40:14;;;;;;;5.03;3.00;;;;;;;21.63;57.60;98327.13;8417356;28;20228;-77
2022/07/07 12:44:18;;;;;;;4.10;2.77;;;;;;;21.60;57.71;98318.63;8417595;28;20223;-77
2022/07/07 12:48:50;;;;;;;5.30;3.10;;;;;;;21.58;57.32;98317.94;8416893;28;20244;-76
2022/07/07 12:52:58;;;;;;;4.50;2.80;;;;;;;21.87;57.16;98307.53;8417024;28;20234;-76
2022/07/07 12:57:03;;;;;;;5.57;2.90;;;;;;;21.88;57.31;98308.41;8417125;28;20233;-76
2022/07/07 13:01:06;;;;;;;3.23;2.73;;;;;;;21.91;57.06;98302.84;8417005;28;20229;-76
2022/07/07 13:05:14;;;;;;;4.13;2.63;;;;;;;21.71;57.82;98307.19;8416692;28;20235;-77
2022/07/07 13:09:16;;;;;;;6.53;2.70;;;;;;;21.91;58.09;98301.03;8416003;28;20235;-76
2022/07/07 13:13:38;;;;;;;7.23;2.80;;;;;;;21.99;57.37;98306.50;8416048;28;20524;-77
2022/07/07 13:18:01;;;;;;;3.20;2.27;;;;;;;21.76;57.08;98297.94;8416272;28;20226;-77
2022/07/07 13:22:06;;;;;;;3.57;2.10;;;;;;;22.02;57.13;98302.75;8416086;28;20245;-77
2022/07/07 13:26:11;;;;;;;6.33;1.97;;;;;;;22.22;57.02;98303.69;8415933;28;20250;-77
2022/07/07 13:30:14;;;;;;;3.30;1.90;;;;;;;22.55;56.93;98302.53;8415664;28;20226;-76
2022/07/07 13:34:17;;;;;;;3.47;1.97;;;;;;;22.88;55.19;98297.88;8415411;28;20589;-77
2022/07/07 13:38:29;;;;;;;2.40;1.60;;;;;;;23.45;52.47;98300.66;8414897;28;20306;-76
2022/07/07 13:42:32;;;;;;;2.43;1.77;;;;;;;23.56;51.79;98307.59;8415376;28;20230;-77
2022/07/07 13:46:35;;;;;;;2.50;1.73;;;;;;;23.61;51.96;98290.34;8414950;28;20522;-77
2022/07/07 13:50:38;;;;;;;2.63;1.70;;;;;;;23.34;52.26;98287.59;8415194;28;20242;-76
2022/07/07 13:54:44;;;;;;;2.33;1.50;;;;;;;23.23;51.57;98301.81;8415206;28;20234;-77
2022/07/07 13:58:47;;;;;;;2.40;1.70;;;;;;;23.32;51.10;98308.91;8414976;28;20236;-76
2022/07/07 14:02:50;;;;;;;3.83;1.60;;;;;;;23.91;50.17;98309.66;8414796;28;20227;-76
2022/07/07 14:06:53;;;;;;;2.10;1.50;;;;;;;23.07;50.26;98296.25;8414739;28;20237;-76
2022/07/07 14:10:58;;;;;;;2.20;1.63;;;;;;;22.77;51.32;98309.41;8414364;28;20239;-76
2022/07/07 14:15:01;;;;;;;3.17;1.97;;;;;;;22.45;51.97;98314.88;8414286;28;20231;-76
2022/07/07 14:19:04;;;;;;;4.50;2.00;;;;;;;22.35;52.99;98308.72;8407602;28;20223;-76
2022/07/07 14:23:07;;;;;;;5.33;2.20;;;;;;;21.96;56.21;98317.31;8380909;28;20231;-76
2022/07/07 14:27:11;;;;;;;5.27;2.07;;;;;;;21.99;56.96;98324.09;8380860;28;20235;-76
2022/07/07 14:31:14;;;;;;;5.60;2.60;;;;;;;21.41;59.36;98343.84;8381255;28;20230;-76
2022/07/07 14:35:17;;;;;;;5.13;2.50;;;;;;;20.83;62.07;98341.56;8381358;28;20258;-77
2022/07/07 14:39:20;;;;;;;5.53;2.17;;;;;;;21.13;61.47;98339.19;8380940;28;20537;-78
2022/07/07 14:43:24;;;;;;;2.17;1.60;;;;;;;21.32;61.33;98338.50;8380804;28;20421;-76
2022/07/07 14:47:34;;;;;;;3.33;1.60;;;;;;;21.32;62.22;98349.03;8388459;28;20246;-77
2022/07/07 14:51:37;;;;;;;1.97;1.70;;;;;;;21.35;61.78;98347.00;8396061;28;20232;-77
2022/07/07 14:55:41;;;;;;;2.73;1.80;;;;;;;21.35;61.56;98341.72;8393751;28;20234;-76
2022/07/07 14:59:46;;;;;;;2.80;1.77;;;;;;;21.65;61.60;98342.81;8391464;28;20235;-77
2022/07/07 15:03:48;;;;;;;2.37;1.40;;;;;;;21.47;60.54;98343.34;8396091;28;20234;-76
2022/07/07 15:07:52;;;;;;;3.63;1.30;;;;;;;21.70;60.59;98348.50;8397648;28;20545;-76
2022/07/07 15:11:55;;;;;;;1.50;1.00;;;;;;;21.33;60.26;98348.09;8397183;28;20237;-77
2022/07/07 15:15:59;;;;;;;2.10;1.00;;;;;;;21.33;60.79;98342.81;8396397;28;20226;-77
2022/07/07 15:20:02;;;;;;;1.73;1.10;;;;;;;21.35;60.81;98351.44;8396104;28;20495;-77
2022/07/07 15:24:07;;;;;;;2.80;0.97;;;;;;;21.45;60.33;98358.47;8390696;28;20231;-76
2022/07/07 15:28:10;;;;;;;1.80;1.27;;;;;;;21.50;60.20;98360.72;8395364;28;20235;-76
2022/07/07 15:32:14;;;;;;;1.17;1.07;;;;;;;21.27;61.35;98359.97;8400858;28;20229;-77
2022/07/07 15:36:17;;;;;;;3.20;1.30;;;;;;;21.34;60.99;98366.38;8396501;28;20227;-77
2022/07/07 15:40:20;;;;;;;1.10;1.00;;;;;;;21.23;60.51;98364.66;8385837;28;20238;-76
2022/07/07 15:44:23;;;;;;;3.53;1.10;;;;;;;21.16;60.02;98367.91;8393460;28;20227;-76
2022/07/07 15:48:27;;;;;;;2.03;1.10;;;;;;;21.29;59.52;98372.03;8418934;28;20258;-76
2022/07/07 15:52:31;;;;;;;2.07;1.30;;;;;;;21.23;60.28;98363.81;8417446;28;20330;-75
2022/07/07 15:56:34;;;;;;;3.00;1.10;;;;;;;21.14;59.92;98368.03;8385531;28;20230;-77
2022/07/07 16:00:36;;;;;;;2.73;1.43;;;;;;;21.01;60.61;98367.34;8385751;28;20239;-77
2022/07/07 16:04:41;;;;;;;1.73;1.43;;;;;;;21.21;60.26;98370.97;8385517;28;20234;-76
2022/07/07 16:08:43;;;;;;;1.50;1.40;;;;;;;21.36;59.93;98361.84;8400515;28;20227;-77
2022/07/07 16:12:46;;;;;;;2.20;1.40;;;;;;;21.51;60.02;98367.66;8407095;28;20230;-77
2022/07/07 16:16:49;;;;;;;2.17;1.63;;;;;;;21.68;59.40;98368.88;8399536;28;20405;-75
2022/07/07 16:20:54;;;;;;;2.87;1.60;;;;;;;21.55;59.44;98365.59;8387704;28;20236;-77
2022/07/07 16:24:56;;;;;;;1.60;1.50;;;;;;;21.72;59.49;98365.03;8384805;28;20227;-77
2022/07/07 16:29:03;;;;;;;3.33;2.10;;;;;;;22.21;58.11;98366.13;8405835;28;20230;-78
2022/07/07 16:33:05;;;;;;;2.67;1.90;;;;;;;22.28;57.61;98370.94;8401946;28;20234;-87
2022/07/07 16:37:10;;;;;;;3.63;1.80;;;;;;;22.19;58.20;98381.25;8384517;28;20230;-78
2022/07/07 16:41:13;;;;;;;2.10;1.50;;;;;;;22.52;56.63;98386.44;8398653;28;20443;-79
2022/07/07 16:45:16;;;;;;;2.07;1.40;;;;;;;21.94;57.55;98386.97;8417059;28;20537;-73
2022/07/07 16:49:19;;;;;;;2.77;1.50;;;;;;;22.09;57.29;98384.84;8405097;28;20234;-81
2022/07/07 16:53:23;;;;;;;1.53;1.30;;;;;;;21.95;57.77;98393.88;8414136;28;20218;-76
2022/07/07 16:57:26;;;;;;;2.37;1.40;;;;;;;21.61;57.50;98399.34;8413950;28;20237;-75
2022/07/07 17:01:29;;;;;;;1.83;1.20;;;;;;;21.46;58.44;98412.00;8405994;28;20229;-75
2022/07/07 17:05:32;;;;;;;3.23;1.60;;;;;;;21.40;59.60;98415.94;8414003;28;20245;-74
2022/07/07 17:09:36;;;;;;;3.07;1.53;;;;;;;21.41;61.02;98420.25;8416368;28;20444;-75
2022/07/07 17:13:39;;;;;;;2.40;1.60;;;;;;;21.27;61.57;98420.53;8416518;28;20234;-74
2022/07/07 17:17:42;;;;;;;2.97;1.53;;;;;;;21.23;61.12;98421.75;8416470;28;20427;-75
2022/07/07 17:21:53;;;;;;;3.47;1.40;;;;;;;21.18;61.64;98419.47;8416443;28;20225;-75
2022/07/07 17:25:57;;;;;;;1.63;1.50;;;;;;;21.13;61.88;98410.28;8416343;28;20233;-74
2022/07/07 17:30:00;;;;;;;2.70;1.70;;;;;;;21.21;61.69;98416.59;8415835;28;20233;-75
2022/07/07 17:34:04;;;;;;;6.27;2.70;;;;;;;21.22;61.70;98414.81;8412674;28;20227;-75
2022/07/07 17:38:07;;;;;;;2.60;2.40;;;;;;;21.19;62.21;98409.78;8396858;28;20268;-79
2022/07/07 17:42:11;;;;;;;3.47;3.13;;;;;;;21.21;62.28;98413.97;8400845;28;20534;-76
2022/07/07 17:46:14;;;;;;;3.73;2.40;;;;;;;21.23;62.60;98411.22;8382100;28;20423;-76
2022/07/07 17:50:17;;;;;;;3.77;2.60;;;;;;;21.25;62.59;98406.66;8381900;28;20231;-75
2022/07/07 17:54:21;;;;;;;2.43;2.00;;;;;;;21.26;62.24;98416.22;8381005;28;20589;-75
2022/07/07 17:58:25;;;;;;;3.43;1.87;;;;;;;21.21;62.43;98413.97;8381264;28;20234;-74
2022/07/07 18:02:28;;;;;;;2.83;2.10;;;;;;;21.11;62.33;98414.84;8381699;28;20230;-75
2022/07/07 18:06:31;;;;;;;4.90;2.40;;;;;;;21.09;62.16;98420.22;8381489;28;20244;-75
2022/07/07 18:10:34;;;;;;;3.30;2.10;;;;;;;21.01;62.16;98420.00;8380299;28;20245;-75
2022/07/07 18:14:38;;;;;;;2.73;1.70;;;;;;;21.01;62.06;98417.38;8381250;28;20234;-75
2022/07/07 18:18:41;;;;;;;2.03;1.40;;;;;;;20.98;61.82;98421.09;8380907;28;20230;-75
2022/07/07 18:22:46;;;;;;;2.10;1.30;;;;;;;20.93;60.87;98422.41;8380981;28;20242;-73
2022/07/07 18:26:49;;;;;;;1.47;1.13;;;;;;;20.90;60.22;98431.38;8397110;28;20240;-85
2022/07/07 18:30:53;;;;;;;2.83;1.30;;;;;;;20.76;60.40;98437.75;8396631;28;20536;-77
2022/07/07 18:34:56;;;;;;;1.43;1.07;;;;;;;20.80;59.18;98436.53;8396759;28;20230;-76
2022/07/07 18:38:59;;;;;;;4.53;1.10;;;;;;;20.73;59.07;98443.25;8394531;28;20234;-76
2022/07/07 18:43:02;;;;;;;2.93;1.10;;;;;;;20.65;58.72;98448.28;8398596;28;20219;-76
2022/07/07 18:47:07;;;;;;;2.03;0.90;;;;;;;20.45;58.45;98457.69;8396437;28;20249;-76
2022/07/07 18:55:30;;;;;;;4.47;1.00;;;;;;;20.41;57.96;98482.53;8397301;28;20228;-76
2022/07/07 18:59:33;;;;;;;1.67;0.90;;;;;;;20.31;57.94;98482.41;8399839;28;20567;-76
2022/07/07 19:03:37;;;;;;;2.37;0.90;;;;;;;20.35;58.00;98488.28;8397022;28;20219;-76
2022/07/07 19:07:40;;;;;;;1.47;0.90;;;;;;;20.31;57.38;98483.25;8397170;28;20250;-76
2022/07/07 19:11:44;;;;;;;3.50;0.73;;;;;;;20.24;57.23;98497.81;8397612;28;20231;-76
2022/07/07 19:15:47;;;;;;;3.80;1.00;;;;;;;20.31;57.50;98501.69;8396494;28;20238;-76
2022/07/07 19:19:51;;;;;;;3.87;0.90;;;;;;;20.41;57.50;98512.34;8381370;28;20234;-76